WXM80 ListenWXM80 Stop

You find our weather info also at:

UK Metoffice

WeatherCloud

Weather Underground

Northeastern Weather Network

AWEKAS

Citizen Weather Observer Program (CWOP)

HAMweather, WeatherForYou, PWS Weather


Weather Underground History page Text

Daily Summary for March 20, 2016 Units:  English    Metric   Both
« Previous Day
Next Day »
Daily Weekly Monthly Yearly Custom
  High: Low: Average:
Temperature: 40.3 °F 32.2 °F 36.4 °F
Dew Point: 32.5 °F 16.6 °F 24.6 °F
Humidity: 91 % 44 % 63 %
Wind Speed: 14.4 mph 0.4 mph 7.6 mph
Wind Gust: 19.6 mph - -
Wind:- - ENE
Pressure: 30.17 in 29.92 in -
Precipitation: 0.00 in    
Historical Graphs
 
 
Tabular Data for March 20, 2016
Time Temperature Dew Point Pressure Wind Wind Speed Wind Gust Humidity Rainfall Rate (Hourly)
00:03 39.3 °F 19.7 °F 30.09 in NE 6.6 mph 11.5 mph 45 % 0.00 in
00:08 39.1 °F 20.0 °F 30.09 in NNE 6.4 mph 10.0 mph 46 % 0.00 in
00:14 39.0 °F 18.9 °F 30.10 in NNE 6.1 mph 11.5 mph 44 % 0.00 in
00:19 38.8 °F 19.2 °F 30.09 in NNE 6.3 mph 12.0 mph 45 % 0.00 in
00:24 38.7 °F 18.6 °F 30.09 in NNW 8.2 mph 12.7 mph 44 % 0.00 in
00:29 38.6 °F 18.5 °F 30.10 in NE 7.4 mph 11.5 mph 44 % 0.00 in
00:34 38.5 °F 20.0 °F 30.10 in North 5.7 mph 9.2 mph 47 % 0.00 in
00:39 38.4 °F 18.9 °F 30.10 in NE 4.9 mph 6.9 mph 45 % 0.00 in
00:44 38.3 °F 18.8 °F 30.10 in NNE 7.1 mph 10.4 mph 45 % 0.00 in
00:49 38.1 °F 19.6 °F 30.11 in NE 4.3 mph 8.1 mph 47 % 0.00 in
00:54 37.9 °F 19.9 °F 30.10 in North 3.6 mph 6.9 mph 48 % 0.00 in
00:59 37.8 °F 19.8 °F 30.11 in NE 4.8 mph 8.1 mph 48 % 0.00 in
01:05 37.6 °F 19.7 °F 30.10 in North 3.2 mph 6.9 mph 48 % 0.00 in
01:10 37.5 °F 20.5 °F 30.11 in North 6.2 mph 10.4 mph 50 % 0.00 in
01:15 37.3 °F 19.4 °F 30.11 in NNE 4.4 mph 6.9 mph 48 % 0.00 in
01:20 37.2 °F 19.3 °F 30.11 in NE 5.4 mph 10.4 mph 48 % 0.00 in
01:25 37.1 °F 19.7 °F 30.11 in East 3.5 mph 6.9 mph 49 % 0.00 in
01:30 37.0 °F 19.1 °F 30.11 in NNE 3.6 mph 6.0 mph 48 % 0.00 in
01:35 36.9 °F 19.5 °F 30.10 in NNE 3.7 mph 10.4 mph 49 % 0.00 in
01:40 36.8 °F 19.9 °F 30.10 in NNE 4.2 mph 5.8 mph 50 % 0.00 in
01:45 36.7 °F 20.3 °F 30.10 in North 4.5 mph 10.0 mph 51 % 0.00 in
01:50 36.7 °F 19.3 °F 30.10 in NE 8.1 mph 12.7 mph 49 % 0.00 in
01:56 36.6 °F 20.2 °F 30.10 in NE 4.4 mph 7.0 mph 51 % 0.00 in
02:01 36.6 °F 21.1 °F 30.10 in NNE 4.4 mph 6.9 mph 53 % 0.00 in
02:06 36.6 °F 22.4 °F 30.10 in ENE 4.5 mph 8.1 mph 56 % 0.00 in
02:11 36.6 °F 21.1 °F 30.10 in NE 4.9 mph 6.9 mph 53 % 0.00 in
02:16 36.7 °F 20.7 °F 30.11 in ENE 4.4 mph 8.1 mph 52 % 0.00 in
02:21 36.8 °F 20.3 °F 30.11 in NE 5.6 mph 13.8 mph 51 % 0.00 in
02:26 36.9 °F 20.0 °F 30.11 in ENE 8.6 mph 12.7 mph 50 % 0.00 in
02:31 36.8 °F 20.3 °F 30.11 in NE 5.7 mph 9.2 mph 51 % 0.00 in
02:36 36.7 °F 21.6 °F 30.10 in ENE 7.8 mph 12.0 mph 54 % 0.00 in
02:41 36.7 °F 22.0 °F 30.10 in ENE 6.1 mph 10.0 mph 55 % 0.00 in
02:47 36.7 °F 21.2 °F 30.11 in NE 3.7 mph 8.1 mph 53 % 0.00 in
02:52 36.6 °F 21.1 °F 30.11 in ENE 6.5 mph 12.0 mph 53 % 0.00 in
02:57 36.6 °F 20.6 °F 30.11 in NE 6.2 mph 12.7 mph 52 % 0.00 in
03:02 36.5 °F 21.4 °F 30.11 in ENE 7.1 mph 15.0 mph 54 % 0.00 in
03:07 36.5 °F 21.4 °F 30.11 in NE 7.0 mph 10.4 mph 54 % 0.00 in
03:12 36.4 °F 21.3 °F 30.10 in NE 7.0 mph 13.0 mph 54 % 0.00 in
03:17 36.4 °F 21.3 °F 30.10 in NE 6.6 mph 12.7 mph 54 % 0.00 in
03:22 36.4 °F 21.3 °F 30.10 in ENE 11.5 mph 15.0 mph 54 % 0.00 in
03:27 36.5 °F 21.4 °F 30.09 in NE 10.4 mph 18.4 mph 54 % 0.00 in
03:32 36.4 °F 21.3 °F 30.10 in NNE 10.8 mph 16.1 mph 54 % 0.00 in
03:38 36.4 °F 20.9 °F 30.10 in NE 11.2 mph 15.0 mph 53 % 0.00 in
03:43 36.2 °F 20.2 °F 30.10 in ENE 10.3 mph 18.4 mph 52 % 0.00 in
03:48 36.1 °F 20.6 °F 30.10 in ENE 10.7 mph 17.3 mph 53 % 0.00 in
03:53 36.0 °F 20.5 °F 30.10 in NE 7.9 mph 12.0 mph 53 % 0.00 in
03:58 35.9 °F 20.9 °F 30.10 in ENE 11.0 mph 16.1 mph 54 % 0.00 in
04:03 35.8 °F 21.6 °F 30.11 in NE 9.2 mph 15.0 mph 56 % 0.00 in
04:08 35.7 °F 21.9 °F 30.11 in NE 5.2 mph 9.2 mph 57 % 0.00 in
04:13 35.6 °F 21.9 °F 30.11 in ENE 7.3 mph 13.0 mph 57 % 0.00 in
04:18 35.5 °F 21.8 °F 30.11 in NE 7.1 mph 12.7 mph 57 % 0.00 in
04:23 35.4 °F 21.7 °F 30.11 in NE 8.4 mph 12.0 mph 57 % 0.00 in
04:29 35.3 °F 21.6 °F 30.11 in East 6.0 mph 11.5 mph 57 % 0.00 in
04:34 35.1 °F 21.4 °F 30.12 in NE 5.5 mph 11.5 mph 57 % 0.00 in
04:39 35.0 °F 21.3 °F 30.12 in ENE 10.2 mph 13.8 mph 57 % 0.00 in
04:44 35.0 °F 20.4 °F 30.12 in ENE 8.6 mph 12.7 mph 55 % 0.00 in
04:49 34.8 °F 21.1 °F 30.12 in ENE 6.5 mph 11.5 mph 57 % 0.00 in
04:54 34.7 °F 21.0 °F 30.12 in ENE 9.3 mph 12.7 mph 57 % 0.00 in
04:59 34.7 °F 20.2 °F 30.12 in ENE 9.9 mph 16.1 mph 55 % 0.00 in
05:09 34.8 °F 18.9 °F 30.12 in ENE 13.0 mph 19.6 mph 52 % 0.00 in
05:14 34.7 °F 18.4 °F 30.11 in ENE 12.0 mph 16.1 mph 51 % 0.00 in
05:20 34.6 °F 17.8 °F 30.11 in NE 14.4 mph 18.4 mph 50 % 0.00 in
05:25 34.5 °F 18.7 °F 30.11 in NE 10.6 mph 13.8 mph 52 % 0.00 in
05:30 34.3 °F 18.9 °F 30.11 in NE 7.9 mph 16.1 mph 53 % 0.00 in
05:40 34.1 °F 17.8 °F 30.11 in ENE 12.6 mph 18.4 mph 51 % 0.00 in
05:45 34.0 °F 17.7 °F 30.11 in ENE 10.7 mph 15.0 mph 51 % 0.00 in
05:50 33.9 °F 17.7 °F 30.11 in ENE 11.6 mph 19.6 mph 51 % 0.00 in
05:55 33.8 °F 17.6 °F 30.11 in ENE 11.8 mph 16.1 mph 51 % 0.00 in
06:00 33.6 °F 17.8 °F 30.12 in ENE 12.1 mph 17.3 mph 52 % 0.00 in
06:05 33.5 °F 17.3 °F 30.12 in East 9.3 mph 18.4 mph 51 % 0.00 in
06:11 33.4 °F 17.2 °F 30.12 in ENE 9.6 mph 13.8 mph 51 % 0.00 in
06:16 33.3 °F 17.1 °F 30.13 in ENE 12.8 mph 18.4 mph 51 % 0.00 in
06:21 33.2 °F 17.5 °F 30.13 in ENE 6.7 mph 13.8 mph 52 % 0.00 in
06:26 33.1 °F 17.8 °F 30.14 in NE 10.7 mph 13.8 mph 53 % 0.00 in
06:31 33.0 °F 16.8 °F 30.14 in ENE 11.5 mph 17.3 mph 51 % 0.00 in
06:36 32.9 °F 17.2 °F 30.15 in NE 11.0 mph 18.4 mph 52 % 0.00 in
06:41 32.8 °F 16.6 °F 30.14 in ENE 11.6 mph 15.0 mph 51 % 0.00 in
06:46 32.7 °F 17.4 °F 30.15 in NE 7.5 mph 15.0 mph 53 % 0.00 in
06:51 32.6 °F 16.9 °F 30.15 in ENE 7.5 mph 12.7 mph 52 % 0.00 in
06:56 32.5 °F 17.2 °F 30.15 in ENE 7.2 mph 11.5 mph 53 % 0.00 in
07:02 32.5 °F 16.8 °F 30.15 in ENE 11.4 mph 16.1 mph 52 % 0.00 in
07:07 32.5 °F 16.8 °F 30.15 in ENE 10.2 mph 13.8 mph 52 % 0.00 in
07:12 32.4 °F 17.6 °F 30.15 in NE 9.6 mph 16.1 mph 54 % 0.00 in
07:17 32.4 °F 18.0 °F 30.14 in ENE 9.3 mph 14.0 mph 55 % 0.00 in
07:22 32.4 °F 17.6 °F 30.15 in NNE 10.2 mph 16.1 mph 54 % 0.00 in
07:27 32.4 °F 18.0 °F 30.15 in NE 10.0 mph 15.0 mph 55 % 0.00 in
07:37 32.3 °F 17.9 °F 30.16 in NE 9.6 mph 17.0 mph 55 % 0.00 in
07:42 32.3 °F 17.9 °F 30.16 in ENE 7.6 mph 13.8 mph 55 % 0.00 in
07:47 32.2 °F 17.8 °F 30.16 in NNE 6.0 mph 12.7 mph 55 % 0.00 in
07:53 32.2 °F 18.2 °F 30.17 in ENE 9.1 mph 12.7 mph 56 % 0.00 in
07:58 32.3 °F 17.9 °F 30.16 in East 9.8 mph 16.0 mph 55 % 0.00 in
08:03 32.3 °F 18.3 °F 30.17 in East 9.8 mph 18.4 mph 56 % 0.00 in
08:08 32.6 °F 18.2 °F 30.16 in ENE 4.8 mph 9.2 mph 55 % 0.00 in
08:13 33.0 °F 18.6 °F 30.16 in ENE 8.5 mph 12.7 mph 55 % 0.00 in
08:18 32.9 °F 18.1 °F 30.15 in ENE 10.4 mph 17.3 mph 54 % 0.00 in
08:23 33.2 °F 19.2 °F 30.16 in ENE 10.1 mph 15.0 mph 56 % 0.00 in
08:28 33.1 °F 18.2 °F 30.16 in NE 7.9 mph 11.5 mph 54 % 0.00 in
08:33 32.9 °F 18.9 °F 30.16 in East 11.5 mph 15.0 mph 56 % 0.00 in
08:38 32.6 °F 19.0 °F 30.16 in ENE 12.2 mph 16.0 mph 57 % 0.00 in
08:44 32.4 °F 19.3 °F 30.16 in East 8.8 mph 14.0 mph 58 % 0.00 in
08:49 32.3 °F 18.8 °F 30.16 in ENE 10.2 mph 16.1 mph 57 % 0.00 in
08:54 32.2 °F 19.1 °F 30.16 in East 12.5 mph 18.4 mph 58 % 0.00 in
08:59 32.6 °F 19.0 °F 30.16 in NE 12.6 mph 15.0 mph 57 % 0.00 in
09:04 32.7 °F 18.7 °F 30.16 in NE 8.0 mph 13.8 mph 56 % 0.00 in
09:09 32.8 °F 19.2 °F 30.16 in ENE 9.0 mph 12.7 mph 57 % 0.00 in
09:14 32.9 °F 19.7 °F 30.17 in NE 11.0 mph 13.8 mph 58 % 0.00 in
09:19 32.9 °F 19.3 °F 30.16 in ENE 13.8 mph 17.3 mph 57 % 0.00 in
09:24 33.1 °F 20.3 °F 30.16 in NE 11.3 mph 17.0 mph 59 % 0.00 in
09:29 33.4 °F 19.8 °F 30.17 in NE 13.4 mph 16.1 mph 57 % 0.00 in
09:35 33.1 °F 19.9 °F 30.16 in ENE 10.5 mph 16.1 mph 58 % 0.00 in
09:40 33.3 °F 20.5 °F 30.16 in ENE 9.9 mph 13.8 mph 59 % 0.00 in
09:45 33.6 °F 20.4 °F 30.16 in ENE 8.9 mph 16.1 mph 58 % 0.00 in
09:50 33.9 °F 20.7 °F 30.16 in ENE 10.9 mph 15.0 mph 58 % 0.00 in
09:55 33.8 °F 21.0 °F 30.16 in East 12.4 mph 16.1 mph 59 % 0.00 in
10:00 33.9 °F 21.5 °F 30.16 in East 9.2 mph 12.7 mph 60 % 0.00 in
10:05 34.5 °F 21.6 °F 30.17 in East 9.5 mph 15.0 mph 59 % 0.00 in
10:10 35.2 °F 23.1 °F 30.16 in East 10.4 mph 13.8 mph 61 % 0.00 in
10:15 35.4 °F 22.9 °F 30.16 in East 9.5 mph 13.8 mph 60 % 0.00 in
10:20 35.3 °F 23.2 °F 30.16 in East 10.4 mph 11.5 mph 61 % 0.00 in
10:26 35.6 °F 23.5 °F 30.16 in ENE 8.9 mph 12.7 mph 61 % 0.00 in
10:31 35.7 °F 23.2 °F 30.16 in ENE 10.0 mph 12.7 mph 60 % 0.00 in
10:36 35.5 °F 23.0 °F 30.16 in ENE 8.8 mph 11.5 mph 60 % 0.00 in
10:41 35.4 °F 23.3 °F 30.16 in East 9.8 mph 11.5 mph 61 % 0.00 in
10:46 35.6 °F 23.9 °F 30.16 in East 8.1 mph 11.5 mph 62 % 0.00 in
10:56 36.3 °F 24.1 °F 30.15 in ENE 11.9 mph 15.0 mph 61 % 0.00 in
11:01 36.2 °F 24.4 °F 30.15 in East 10.1 mph 15.0 mph 62 % 0.00 in
11:06 36.0 °F 24.2 °F 30.15 in ENE 9.3 mph 15.0 mph 62 % 0.00 in
11:11 36.0 °F 24.6 °F 30.14 in East 12.6 mph 15.0 mph 63 % 0.00 in
11:17 36.2 °F 24.8 °F 30.14 in ENE 12.6 mph 16.0 mph 63 % 0.00 in
11:22 36.4 °F 25.4 °F 30.14 in ENE 8.3 mph 13.8 mph 64 % 0.00 in
11:27 36.5 °F 25.1 °F 30.14 in NNE 8.7 mph 15.0 mph 63 % 0.00 in
11:32 36.9 °F 25.9 °F 30.14 in ENE 9.1 mph 13.0 mph 64 % 0.00 in
11:37 37.2 °F 26.1 °F 30.15 in ENE 10.2 mph 15.0 mph 64 % 0.00 in
11:42 37.0 °F 25.9 °F 30.15 in ENE 8.8 mph 11.5 mph 64 % 0.00 in
11:47 37.1 °F 26.0 °F 30.15 in ENE 9.3 mph 12.7 mph 64 % 0.00 in
11:52 37.1 °F 26.4 °F 30.15 in ENE 4.8 mph 9.2 mph 65 % 0.00 in
11:57 37.0 °F 25.9 °F 30.15 in East 8.9 mph 12.7 mph 64 % 0.00 in
12:08 36.6 °F 25.9 °F 30.15 in East 7.5 mph 13.8 mph 65 % 0.00 in
12:13 36.6 °F 25.9 °F 30.14 in East 9.0 mph 14.0 mph 65 % 0.00 in
12:18 36.6 °F 26.3 °F 30.14 in ENE 7.9 mph 11.5 mph 66 % 0.00 in
12:23 37.0 °F 27.1 °F 30.14 in East 8.1 mph 11.0 mph 67 % 0.00 in
12:28 37.0 °F 26.3 °F 30.14 in East 10.8 mph 17.3 mph 65 % 0.00 in
12:33 36.9 °F 27.0 °F 30.13 in East 10.1 mph 13.0 mph 67 % 0.00 in
12:43 36.9 °F 26.2 °F 30.13 in ENE 8.4 mph 13.8 mph 65 % 0.00 in
12:48 36.6 °F 26.3 °F 30.13 in ENE 9.7 mph 13.8 mph 66 % 0.00 in
12:54 36.3 °F 26.7 °F 30.13 in ENE 9.9 mph 12.7 mph 68 % 0.00 in
12:59 36.2 °F 26.6 °F 30.12 in ENE 10.8 mph 15.0 mph 68 % 0.00 in
13:04 36.1 °F 26.9 °F 30.12 in ENE 8.2 mph 13.8 mph 69 % 0.00 in
13:09 36.4 °F 27.9 °F 30.12 in ENE 9.2 mph 13.8 mph 71 % 0.00 in
13:14 36.7 °F 27.8 °F 30.12 in ENE 7.9 mph 10.4 mph 70 % 0.00 in
13:19 36.9 °F 28.0 °F 30.12 in NE 5.7 mph 10.4 mph 70 % 0.00 in
13:24 37.1 °F 28.2 °F 30.12 in East 8.5 mph 11.5 mph 70 % 0.00 in
13:29 37.1 °F 28.2 °F 30.11 in ENE 9.3 mph 13.8 mph 70 % 0.00 in
13:34 37.3 °F 28.4 °F 30.11 in ENE 8.3 mph 10.4 mph 70 % 0.00 in
13:39 37.3 °F 28.1 °F 30.10 in ENE 10.1 mph 13.8 mph 69 % 0.00 in
13:45 37.1 °F 28.2 °F 30.10 in ENE 9.4 mph 12.0 mph 70 % 0.00 in
13:50 37.1 °F 27.9 °F 30.10 in East 11.2 mph 15.0 mph 69 % 0.00 in
13:55 37.1 °F 28.9 °F 30.10 in ENE 7.8 mph 9.2 mph 72 % 0.00 in
14:00 37.3 °F 28.4 °F 30.10 in ENE 7.9 mph 12.7 mph 70 % 0.00 in
14:05 37.6 °F 29.0 °F 30.09 in ENE 7.4 mph 15.0 mph 71 % 0.00 in
14:10 38.0 °F 29.8 °F 30.09 in ENE 10.0 mph 13.8 mph 72 % 0.00 in
14:15 38.5 °F 29.9 °F 30.09 in ENE 9.9 mph 14.0 mph 71 % 0.00 in
14:20 39.0 °F 30.4 °F 30.08 in ENE 10.2 mph 14.0 mph 71 % 0.00 in
14:25 39.2 °F 30.2 °F 30.08 in East 12.2 mph 17.3 mph 70 % 0.00 in
14:30 39.2 °F 29.9 °F 30.08 in East 11.1 mph 15.0 mph 69 % 0.00 in
14:36 38.9 °F 29.9 °F 30.08 in ENE 11.2 mph 14.0 mph 70 % 0.00 in
14:41 38.9 °F 29.9 °F 30.07 in NE 10.4 mph 15.0 mph 70 % 0.00 in
14:46 39.1 °F 30.5 °F 30.07 in ENE 13.3 mph 17.3 mph 71 % 0.00 in
14:51 39.4 °F 30.4 °F 30.07 in NE 10.8 mph 16.0 mph 70 % 0.00 in
14:56 39.5 °F 30.2 °F 30.07 in ENE 9.4 mph 15.0 mph 69 % 0.00 in
15:01 39.3 °F 30.0 °F 30.06 in ENE 10.7 mph 13.8 mph 69 % 0.00 in
15:06 39.5 °F 30.5 °F 30.06 in NE 9.4 mph 12.7 mph 70 % 0.00 in
15:11 39.8 °F 30.5 °F 30.06 in ENE 11.6 mph 14.0 mph 69 % 0.00 in
15:16 39.8 °F 30.5 °F 30.05 in East 8.4 mph 13.8 mph 69 % 0.00 in
15:21 39.7 °F 30.4 °F 30.05 in ENE 10.1 mph 13.8 mph 69 % 0.00 in
15:27 39.9 °F 30.5 °F 30.05 in ENE 11.8 mph 16.1 mph 69 % 0.00 in
15:32 40.0 °F 30.6 °F 30.05 in ENE 10.1 mph 16.1 mph 69 % 0.00 in
15:37 39.9 °F 30.2 °F 30.04 in East 10.5 mph 17.0 mph 68 % 0.00 in
15:42 40.0 °F 30.6 °F 30.04 in ENE 10.7 mph 15.0 mph 69 % 0.00 in
15:47 40.1 °F 30.7 °F 30.03 in East 13.0 mph 16.1 mph 69 % 0.00 in
15:52 40.0 °F 30.6 °F 30.02 in ENE 10.7 mph 16.1 mph 69 % 0.00 in
16:02 40.1 °F 29.6 °F 30.02 in East 10.2 mph 16.1 mph 66 % 0.00 in
16:07 40.2 °F 28.2 °F 30.03 in ENE 9.8 mph 14.0 mph 62 % 0.00 in
16:12 40.2 °F 25.3 °F 30.04 in ENE 9.9 mph 17.3 mph 55 % 0.00 in
16:18 40.3 °F 26.7 °F 30.03 in ENE 9.6 mph 15.0 mph 58 % 0.00 in
16:23 40.0 °F 25.1 °F 30.02 in ENE 11.9 mph 15.0 mph 55 % 0.00 in
16:28 39.8 °F 25.8 °F 30.02 in NE 8.4 mph 15.0 mph 57 % 0.00 in
16:33 39.5 °F 26.3 °F 30.02 in ENE 7.7 mph 13.0 mph 59 % 0.00 in
16:38 39.3 °F 25.7 °F 30.02 in East 9.2 mph 12.7 mph 58 % 0.00 in
16:43 39.0 °F 25.9 °F 30.02 in ENE 8.5 mph 11.5 mph 59 % 0.00 in
16:48 38.9 °F 26.6 °F 30.01 in East 6.5 mph 9.2 mph 61 % 0.00 in
16:53 38.9 °F 25.8 °F 30.02 in ENE 6.7 mph 9.2 mph 59 % 0.00 in
16:58 38.8 °F 26.1 °F 30.02 in ENE 6.4 mph 11.5 mph 60 % 0.00 in
17:03 38.7 °F 27.2 °F 30.02 in ENE 7.7 mph 10.0 mph 63 % 0.00 in
17:14 38.5 °F 27.0 °F 30.01 in ENE 5.9 mph 13.8 mph 63 % 0.00 in
17:19 38.4 °F 26.5 °F 30.01 in East 8.1 mph 11.5 mph 62 % 0.00 in
17:24 38.4 °F 26.9 °F 30.00 in ENE 10.1 mph 11.5 mph 63 % 0.00 in
17:29 38.2 °F 27.5 °F 30.00 in East 6.4 mph 8.1 mph 65 % 0.00 in
17:34 38.2 °F 27.5 °F 30.00 in ENE 6.4 mph 9.2 mph 65 % 0.00 in
17:39 38.2 °F 27.8 °F 30.00 in East 6.4 mph 11.5 mph 66 % 0.00 in
17:44 38.3 °F 27.2 °F 30.00 in ENE 5.4 mph 7.0 mph 64 % 0.00 in
17:54 38.2 °F 26.7 °F 30.00 in East 5.5 mph 8.1 mph 63 % 0.00 in
18:00 38.3 °F 27.6 °F 30.00 in East 6.1 mph 12.7 mph 65 % 0.00 in
18:05 38.2 °F 27.5 °F 30.00 in ENE 6.2 mph 9.2 mph 65 % 0.00 in
18:10 38.2 °F 27.5 °F 29.99 in East 5.8 mph 9.2 mph 65 % 0.00 in
18:15 38.2 °F 27.5 °F 29.99 in East 7.6 mph 9.2 mph 65 % 0.00 in
18:20 38.3 °F 28.3 °F 30.00 in East 6.2 mph 8.1 mph 67 % 0.00 in
18:25 38.3 °F 27.9 °F 30.00 in East 5.4 mph 6.9 mph 66 % 0.00 in
18:30 38.4 °F 28.0 °F 29.99 in East 6.1 mph 8.1 mph 66 % 0.00 in
18:35 38.4 °F 27.7 °F 30.00 in East 5.6 mph 7.0 mph 65 % 0.00 in
18:40 38.4 °F 28.0 °F 30.00 in East 5.2 mph 7.0 mph 66 % 0.00 in
18:45 38.4 °F 27.7 °F 30.00 in ENE 2.8 mph 4.6 mph 65 % 0.00 in
18:51 38.4 °F 28.0 °F 30.00 in East 3.9 mph 6.0 mph 66 % 0.00 in
18:56 38.4 °F 28.4 °F 30.01 in ENE 1.5 mph 4.6 mph 67 % 0.00 in
19:01 38.5 °F 28.1 °F 30.00 in ENE 4.6 mph 8.1 mph 66 % 0.00 in
19:06 38.4 °F 28.0 °F 30.00 in ENE 2.8 mph 4.6 mph 66 % 0.00 in
19:11 38.4 °F 28.0 °F 30.00 in East 4.0 mph 6.9 mph 66 % 0.00 in
19:16 38.4 °F 28.0 °F 30.00 in East 3.2 mph 5.0 mph 66 % 0.00 in
19:21 38.4 °F 28.0 °F 30.00 in ENE 4.2 mph 5.8 mph 66 % 0.00 in
19:26 38.4 °F 28.0 °F 30.00 in East 4.1 mph 5.0 mph 66 % 0.00 in
19:31 38.4 °F 28.0 °F 30.00 in East 2.6 mph 4.6 mph 66 % 0.00 in
19:36 38.4 °F 28.4 °F 30.00 in East 2.9 mph 4.6 mph 67 % 0.00 in
19:42 38.4 °F 28.4 °F 29.99 in ENE 4.0 mph 8.1 mph 67 % 0.00 in
19:47 38.3 °F 27.9 °F 29.99 in ENE 3.4 mph 6.9 mph 66 % 0.00 in
19:52 38.4 °F 28.4 °F 29.99 in East 3.1 mph 4.6 mph 67 % 0.00 in
19:57 38.4 °F 28.4 °F 29.99 in East 3.0 mph 5.0 mph 67 % 0.00 in
20:02 38.4 °F 28.4 °F 29.98 in East 4.2 mph 5.0 mph 67 % 0.00 in
20:07 38.4 °F 28.0 °F 29.98 in ENE 3.6 mph 5.0 mph 66 % 0.00 in
20:12 38.4 °F 28.4 °F 29.98 in ENE 3.0 mph 6.9 mph 67 % 0.00 in
20:17 38.3 °F 28.7 °F 29.98 in ENE 6.5 mph 9.2 mph 68 % 0.00 in
20:22 38.3 °F 29.0 °F 29.98 in ENE 5.8 mph 7.0 mph 69 % 0.00 in
20:27 38.3 °F 28.7 °F 29.98 in East 5.9 mph 9.2 mph 68 % 0.00 in
20:33 38.2 °F 28.9 °F 29.99 in ENE 5.2 mph 7.0 mph 69 % 0.00 in
20:38 38.2 °F 28.9 °F 29.99 in ENE 4.5 mph 9.2 mph 69 % 0.00 in
20:43 38.2 °F 29.3 °F 29.99 in ENE 5.0 mph 6.9 mph 70 % 0.00 in
20:53 38.1 °F 29.5 °F 29.99 in ENE 4.5 mph 8.1 mph 71 % 0.00 in
20:58 38.0 °F 29.1 °F 29.99 in East 2.7 mph 6.0 mph 70 % 0.00 in
21:03 38.0 °F 28.7 °F 29.99 in ESE 0.8 mph 3.5 mph 69 % 0.00 in
21:08 37.9 °F 29.0 °F 29.99 in East 3.6 mph 5.0 mph 70 % 0.00 in
21:13 37.9 °F 29.7 °F 29.99 in ENE 3.9 mph 5.8 mph 72 % 0.00 in
21:18 37.7 °F 30.2 °F 29.99 in East 5.8 mph 9.0 mph 74 % 0.00 in
21:24 37.4 °F 30.2 °F 29.98 in NNE 1.0 mph 6.9 mph 75 % 0.00 in
21:34 36.9 °F 30.7 °F 29.98 in ESE 3.9 mph 6.0 mph 78 % 0.00 in
21:39 36.5 °F 30.9 °F 29.98 in East 6.5 mph 8.1 mph 80 % 0.00 in
21:44 36.2 °F 31.2 °F 29.98 in East 1.6 mph 3.5 mph 82 % 0.00 in
21:49 35.8 °F 31.4 °F 29.98 in East 2.5 mph 4.6 mph 84 % 0.00 in
21:54 35.5 °F 31.4 °F 29.97 in ESE 1.9 mph 2.3 mph 85 % 0.00 in
21:59 35.2 °F 31.4 °F 29.97 in ESE 0.4 mph 2.0 mph 86 % 0.00 in
22:04 35.0 °F 31.5 °F 29.97 in SE 1.8 mph 3.5 mph 87 % 0.00 in
22:09 34.8 °F 31.6 °F 29.96 in East 3.5 mph 6.0 mph 88 % 0.00 in
22:15 34.6 °F 31.7 °F 29.96 in East 4.6 mph 6.9 mph 89 % 0.00 in
22:20 34.6 °F 32.0 °F 29.96 in ENE 3.7 mph 6.9 mph 90 % 0.00 in
22:25 34.6 °F 32.0 °F 29.96 in ENE 3.3 mph 6.9 mph 90 % 0.00 in
22:30 34.7 °F 32.3 °F 29.95 in East 5.0 mph 8.0 mph 91 % 0.00 in
22:35 34.8 °F 32.4 °F 29.95 in East 4.1 mph 5.8 mph 91 % 0.00 in
22:40 34.9 °F 32.5 °F 29.95 in East 4.5 mph 5.8 mph 91 % 0.00 in
22:45 34.9 °F 32.5 °F 29.94 in East 3.2 mph 5.0 mph 91 % 0.00 in
22:55 34.8 °F 32.2 °F 29.94 in East 4.5 mph 8.0 mph 90 % 0.00 in
23:00 34.8 °F 32.2 °F 29.93 in ENE 5.0 mph 6.9 mph 90 % 0.00 in
23:06 34.9 °F 32.3 °F 29.93 in ENE 4.1 mph 5.8 mph 90 % 0.00 in
23:11 34.8 °F 32.2 °F 29.93 in East 3.9 mph 6.0 mph 90 % 0.00 in
23:16 34.8 °F 32.2 °F 29.93 in ENE 5.2 mph 8.1 mph 90 % 0.00 in
23:21 34.9 °F 32.3 °F 29.93 in ENE 3.4 mph 4.6 mph 90 % 0.00 in
23:26 34.9 °F 32.3 °F 29.93 in ENE 2.5 mph 8.1 mph 90 % 0.00 in
23:31 35.0 °F 32.1 °F 29.93 in ENE 6.1 mph 9.0 mph 89 % 0.00 in
23:36 35.1 °F 31.6 °F 29.92 in ENE 9.4 mph 11.5 mph 87 % 0.00 in
23:41 35.1 °F 31.3 °F 29.93 in ENE 5.7 mph 10.0 mph 86 % 0.00 in
23:46 35.2 °F 31.4 °F 29.92 in ENE 6.7 mph 10.4 mph 86 % 0.00 in
23:51 35.2 °F 31.4 °F 29.92 in NE 5.5 mph 6.9 mph 86 % 0.00 in
23:57 35.3 °F 31.5 °F 29.92 in NNE 3.6 mph 8.1 mph 86 % 0.00 in
Crab Meadow Weather
Compliments of Weather Underground - 3 mb

Script developed by  Jim McMurry - jmcmurry@mwt.net Adapted for the template by  Wim van der Kuil - Leuven-Template.eu

Weather Terms: Waterspout - In general, a tornado occurring over water. Specifically, it refers to a small, relatively weak rotating column of air over water beneath a towering cumulus or cumulonimbus cloud. They occasionally occur over Lake Michigan in late summer with unusually cold air aloft.